sensor_id;sensor_type;location;lat;lon;timestamp;pressure;altitude;pressure_sealevel;temperature;humidity
15477;BME280;7840;42.702;23.296;2023-02-21T00:01:57;95486.41;;;4.35;100.00
15477;BME280;7840;42.702;23.296;2023-02-21T00:04:45;95485.03;;;4.46;100.00
15477;BME280;7840;42.702;23.296;2023-02-21T00:07:31;95475.47;;;4.25;100.00
15477;BME280;7840;42.702;23.296;2023-02-21T00:10:17;95477.53;;;4.36;100.00
15477;BME280;7840;42.702;23.296;2023-02-21T00:13:02;95480.38;;;4.42;100.00
15477;BME280;7840;42.702;23.296;2023-02-21T00:15:47;95472.84;;;4.25;100.00
15477;BME280;7840;42.702;23.296;2023-02-21T00:18:33;95477.94;;;4.27;100.00
15477;BME280;7840;42.702;23.296;2023-02-21T00:21:20;95478.88;;;4.13;100.00
15477;BME280;7840;42.702;23.296;2023-02-21T00:24:05;95472.06;;;4.31;100.00
15477;BME280;7840;42.702;23.296;2023-02-21T00:26:50;95471.91;;;4.39;100.00
15477;BME280;7840;42.702;23.296;2023-02-21T00:29:35;95467.88;;;4.44;100.00
15477;BME280;7840;42.702;23.296;2023-02-21T00:32:20;95463.22;;;4.46;100.00
15477;BME280;7840;42.702;23.296;2023-02-21T00:35:05;95465.75;;;4.06;100.00
15477;BME280;7840;42.702;23.296;2023-02-21T00:37:52;95455.75;;;4.29;100.00
15477;BME280;7840;42.702;23.296;2023-02-21T00:40:37;95472.91;;;4.38;100.00
15477;BME280;7840;42.702;23.296;2023-02-21T00:43:10;95469.47;;;4.45;100.00
15477;BME280;7840;42.702;23.296;2023-02-21T00:45:57;95464.25;;;4.45;100.00
15477;BME280;7840;42.702;23.296;2023-02-21T00:48:44;95447.69;;;4.44;100.00
15477;BME280;7840;42.702;23.296;2023-02-21T00:51:29;95456.91;;;4.14;100.00
15477;BME280;7840;42.702;23.296;2023-02-21T00:54:16;95450.31;;;3.83;100.00
15477;BME280;7840;42.702;23.296;2023-02-21T00:57:01;95447.19;;;4.01;100.00
15477;BME280;7840;42.702;23.296;2023-02-21T00:59:46;95427.06;;;4.21;100.00
15477;BME280;7840;42.702;23.296;2023-02-21T01:02:31;95433.88;;;4.02;100.00
15477;BME280;7840;42.702;23.296;2023-02-21T01:05:16;95426.28;;;4.21;100.00
15477;BME280;7840;42.702;23.296;2023-02-21T01:08:01;95426.66;;;4.24;100.00
15477;BME280;7840;42.702;23.296;2023-02-21T01:13:13;95410.19;;;4.44;100.00
15477;BME280;7840;42.702;23.296;2023-02-21T01:16:00;95401.72;;;4.48;100.00
15477;BME280;7840;42.702;23.296;2023-02-21T01:18:45;95406.56;;;4.58;99.58
15477;BME280;7840;42.702;23.296;2023-02-21T01:21:32;95404.16;;;4.63;98.99
15477;BME280;7840;42.702;23.296;2023-02-21T01:24:18;95411.41;;;4.48;99.43
15477;BME280;7840;42.702;23.296;2023-02-21T01:27:05;95405.31;;;4.27;100.00
15477;BME280;7840;42.702;23.296;2023-02-21T01:29:51;95397.81;;;4.24;100.00
15477;BME280;7840;42.702;23.296;2023-02-21T01:32:36;95393.63;;;4.36;100.00
15477;BME280;7840;42.702;23.296;2023-02-21T01:35:21;95391.22;;;4.48;100.00
15477;BME280;7840;42.702;23.296;2023-02-21T01:38:09;95385.19;;;4.61;100.00
15477;BME280;7840;42.702;23.296;2023-02-21T01:40:56;95382.34;;;4.43;99.61
15477;BME280;7840;42.702;23.296;2023-02-21T01:43:56;95397.25;;;4.35;100.00
15477;BME280;7840;42.702;23.296;2023-02-21T01:46:44;95391.22;;;4.42;100.00
15477;BME280;7840;42.702;23.296;2023-02-21T01:49:30;95389.22;;;4.57;100.00
15477;BME280;7840;42.702;23.296;2023-02-21T01:52:16;95376.28;;;4.49;100.00
15477;BME280;7840;42.702;23.296;2023-02-21T01:55:02;95369.22;;;4.29;100.00
15477;BME280;7840;42.702;23.296;2023-02-21T01:57:48;95368.19;;;4.37;100.00
15477;BME280;7840;42.702;23.296;2023-02-21T02:00:34;95371.84;;;4.56;100.00
15477;BME280;7840;42.702;23.296;2023-02-21T02:03:21;95370.25;;;4.55;100.00
15477;BME280;7840;42.702;23.296;2023-02-21T02:06:09;95363.38;;;4.54;100.00
15477;BME280;7840;42.702;23.296;2023-02-21T02:08:54;95365.00;;;4.61;100.00
15477;BME280;7840;42.702;23.296;2023-02-21T02:12:01;95360.13;;;4.52;100.00
15477;BME280;7840;42.702;23.296;2023-02-21T02:15:22;95354.47;;;4.15;100.00
15477;BME280;7840;42.702;23.296;2023-02-21T02:31:01;95346.00;;;4.13;100.00
15477;BME280;7840;42.702;23.296;2023-02-21T02:36:59;95346.03;;;4.39;100.00
15477;BME280;7840;42.702;23.296;2023-02-21T02:39:50;95342.59;;;4.32;100.00
15477;BME280;7840;42.702;23.296;2023-02-21T02:50:17;95334.31;;;4.22;100.00
15477;BME280;7840;42.702;23.296;2023-02-21T02:52:54;95333.91;;;4.12;100.00
15477;BME280;7840;42.702;23.296;2023-02-21T02:55:29;95340.94;;;4.05;100.00
15477;BME280;7840;42.702;23.296;2023-02-21T02:57:58;95329.44;;;3.99;100.00
15477;BME280;7840;42.702;23.296;2023-02-21T03:00:29;95332.66;;;4.01;100.00
15477;BME280;7840;42.702;23.296;2023-02-21T03:03:28;95325.84;;;4.14;100.00
15477;BME280;7840;42.702;23.296;2023-02-21T03:06:09;95320.16;;;4.10;100.00
15477;BME280;7840;42.702;23.296;2023-02-21T03:08:48;95333.09;;;4.18;100.00
15477;BME280;7840;42.702;23.296;2023-02-21T03:11:20;95322.59;;;4.31;100.00
15477;BME280;7840;42.702;23.296;2023-02-21T03:13:55;95333.91;;;4.38;100.00
15477;BME280;7840;42.702;23.296;2023-02-21T03:16:26;95333.91;;;4.52;100.00
15477;BME280;7840;42.702;23.296;2023-02-21T03:18:57;95333.09;;;4.51;100.00
15477;BME280;7840;42.702;23.296;2023-02-21T03:21:31;95324.22;;;4.46;100.00
15477;BME280;7840;42.702;23.296;2023-02-21T03:24:04;95317.56;;;4.63;100.00
15477;BME280;7840;42.702;23.296;2023-02-21T03:26:35;95321.22;;;4.35;100.00
15477;BME280;7840;42.702;23.296;2023-02-21T03:29:03;95313.72;;;4.46;100.00
15477;BME280;7840;42.702;23.296;2023-02-21T03:31:35;95311.31;;;4.51;100.00
15477;BME280;7840;42.702;23.296;2023-02-21T03:34:04;95316.97;;;4.61;100.00
15477;BME280;7840;42.702;23.296;2023-02-21T03:36:32;95307.28;;;4.68;99.66
15477;BME280;7840;42.702;23.296;2023-02-21T03:39:01;95314.72;;;4.71;98.97
15477;BME280;7840;42.702;23.296;2023-02-21T03:41:29;95316.53;;;4.77;98.93
15477;BME280;7840;42.702;23.296;2023-02-21T03:43:57;95316.16;;;4.74;98.88
15477;BME280;7840;42.702;23.296;2023-02-21T03:46:24;95322.81;;;4.76;98.46
15477;BME280;7840;42.702;23.296;2023-02-21T03:48:52;95322.22;;;4.74;98.88
15477;BME280;7840;42.702;23.296;2023-02-21T03:51:20;95336.72;;;4.30;100.00
15477;BME280;7840;42.702;23.296;2023-02-21T03:53:48;95336.53;;;4.12;100.00
15477;BME280;7840;42.702;23.296;2023-02-21T03:56:17;95338.53;;;4.10;100.00
15477;BME280;7840;42.702;23.296;2023-02-21T03:58:44;95334.28;;;4.02;100.00
15477;BME280;7840;42.702;23.296;2023-02-21T04:01:12;95339.34;;;4.17;100.00
15477;BME280;7840;42.702;23.296;2023-02-21T04:03:39;95337.34;;;4.32;100.00
15477;BME280;7840;42.702;23.296;2023-02-21T04:06:07;95333.72;;;4.33;100.00
15477;BME280;7840;42.702;23.296;2023-02-21T04:08:35;95337.53;;;4.24;100.00
15477;BME280;7840;42.702;23.296;2023-02-21T04:11:03;95348.16;;;3.90;100.00
15477;BME280;7840;42.702;23.296;2023-02-21T04:13:32;95333.06;;;3.92;100.00
15477;BME280;7840;42.702;23.296;2023-02-21T04:15:59;95338.31;;;3.92;100.00
15477;BME280;7840;42.702;23.296;2023-02-21T04:18:27;95342.94;;;4.03;100.00
15477;BME280;7840;42.702;23.296;2023-02-21T04:20:55;95349.63;;;4.12;100.00
15477;BME280;7840;42.702;23.296;2023-02-21T04:23:22;95354.28;;;4.23;100.00
15477;BME280;7840;42.702;23.296;2023-02-21T04:25:50;95354.88;;;4.25;100.00
15477;BME280;7840;42.702;23.296;2023-02-21T04:28:18;95362.13;;;4.23;100.00
15477;BME280;7840;42.702;23.296;2023-02-21T04:30:47;95360.09;;;4.05;100.00
15477;BME280;7840;42.702;23.296;2023-02-21T04:33:15;95368.59;;;4.21;100.00
15477;BME280;7840;42.702;23.296;2023-02-21T04:35:43;95370.59;;;4.25;100.00
15477;BME280;7840;42.702;23.296;2023-02-21T04:38:10;95371.97;;;3.95;100.00
15477;BME280;7840;42.702;23.296;2023-02-21T04:40:38;95368.16;;;4.10;100.00
15477;BME280;7840;42.702;23.296;2023-02-21T04:43:06;95365.75;;;4.16;100.00
15477;BME280;7840;42.702;23.296;2023-02-21T04:45:33;95369.38;;;4.08;100.00
15477;BME280;7840;42.702;23.296;2023-02-21T04:50:29;95368.41;;;3.61;100.00
15477;BME280;7840;42.702;23.296;2023-02-21T04:52:57;95368.91;;;3.78;100.00
15477;BME280;7840;42.702;23.296;2023-02-21T04:55:24;95363.03;;;3.76;100.00
15477;BME280;7840;42.702;23.296;2023-02-21T04:57:52;95357.34;;;3.59;100.00
15477;BME280;7840;42.702;23.296;2023-02-21T05:00:20;95351.94;;;3.74;100.00
15477;BME280;7840;42.702;23.296;2023-02-21T05:02:47;95345.94;;;3.80;100.00
15477;BME280;7840;42.702;23.296;2023-02-21T05:05:17;95336.25;;;3.80;100.00
15477;BME280;7840;42.702;23.296;2023-02-21T05:07:45;95324.19;;;3.86;100.00
15477;BME280;7840;42.702;23.296;2023-02-21T05:10:14;95337.63;;;3.76;100.00
15477;BME280;7840;42.702;23.296;2023-02-21T05:12:42;95343.06;;;3.68;100.00
15477;BME280;7840;42.702;23.296;2023-02-21T05:15:11;95339.06;;;3.72;100.00
15477;BME280;7840;42.702;23.296;2023-02-21T05:17:39;95337.28;;;3.93;100.00
15477;BME280;7840;42.702;23.296;2023-02-21T05:22:39;95333.81;;;3.72;100.00
15477;BME280;7840;42.702;23.296;2023-02-21T05:25:08;95323.72;;;3.69;100.00
15477;BME280;7840;42.702;23.296;2023-02-21T05:27:40;95320.13;;;3.83;100.00
15477;BME280;7840;42.702;23.296;2023-02-21T05:30:09;95312.47;;;3.89;100.00
15477;BME280;7840;42.702;23.296;2023-02-21T05:32:37;95318.34;;;3.97;100.00
15477;BME280;7840;42.702;23.296;2023-02-21T05:35:05;95324.00;;;4.07;100.00
15477;BME280;7840;42.702;23.296;2023-02-21T05:37:42;95326.22;;;4.04;100.00
15477;BME280;7840;42.702;23.296;2023-02-21T05:40:11;95335.09;;;4.16;100.00
15477;BME280;7840;42.702;23.296;2023-02-21T05:42:41;95333.50;;;4.28;100.00
15477;BME280;7840;42.702;23.296;2023-02-21T05:45:09;95338.34;;;4.25;100.00
15477;BME280;7840;42.702;23.296;2023-02-21T05:47:37;95340.38;;;4.29;100.00
15477;BME280;7840;42.702;23.296;2023-02-21T05:50:06;95345.03;;;4.41;100.00
15477;BME280;7840;42.702;23.296;2023-02-21T05:52:34;95340.78;;;4.46;100.00
15477;BME280;7840;42.702;23.296;2023-02-21T05:55:06;95346.22;;;4.58;100.00
15477;BME280;7840;42.702;23.296;2023-02-21T05:57:37;95354.50;;;4.68;99.77
15477;BME280;7840;42.702;23.296;2023-02-21T06:00:06;95356.09;;;4.82;99.85
15477;BME280;7840;42.702;23.296;2023-02-21T06:02:37;95359.53;;;4.89;98.00
15477;BME280;7840;42.702;23.296;2023-02-21T06:05:06;95363.31;;;5.07;95.21
15477;BME280;7840;42.702;23.296;2023-02-21T06:07:34;95357.66;;;5.23;93.76
15477;BME280;7840;42.702;23.296;2023-02-21T06:10:01;95361.28;;;5.35;92.36
15477;BME280;7840;42.702;23.296;2023-02-21T06:12:33;95371.34;;;5.45;92.22
15477;BME280;7840;42.702;23.296;2023-02-21T06:15:01;95365.69;;;5.28;90.54
15477;BME280;7840;42.702;23.296;2023-02-21T06:17:32;95356.84;;;5.22;91.32
15477;BME280;7840;42.702;23.296;2023-02-21T06:20:00;95364.53;;;5.11;91.82
15477;BME280;7840;42.702;23.296;2023-02-21T06:22:28;95360.09;;;5.18;91.17
15477;BME280;7840;42.702;23.296;2023-02-21T06:24:56;95363.94;;;5.15;91.02
15477;BME280;7840;42.702;23.296;2023-02-21T06:27:25;95365.94;;;5.13;91.76
15477;BME280;7840;42.702;23.296;2023-02-21T06:29:57;95364.53;;;5.24;92.28
15477;BME280;7840;42.702;23.296;2023-02-21T06:32:25;95366.06;;;5.45;90.85
15477;BME280;7840;42.702;23.296;2023-02-21T06:34:53;95363.00;;;5.55;89.76
15477;BME280;7840;42.702;23.296;2023-02-21T06:37:21;95368.41;;;5.73;88.44
15477;BME280;7840;42.702;23.296;2023-02-21T06:39:49;95367.06;;;6.02;85.95
15477;BME280;7840;42.702;23.296;2023-02-21T06:42:17;95368.56;;;6.23;85.79
15477;BME280;7840;42.702;23.296;2023-02-21T06:44:47;95364.75;;;6.50;83.64
15477;BME280;7840;42.702;23.296;2023-02-21T06:47:30;95365.00;;;6.74;82.27
15477;BME280;7840;42.702;23.296;2023-02-21T06:49:57;95365.19;;;6.97;81.31
15477;BME280;7840;42.702;23.296;2023-02-21T06:52:29;95363.47;;;6.60;80.67
15477;BME280;7840;42.702;23.296;2023-02-21T06:54:57;95366.69;;;6.62;81.95
15477;BME280;7840;42.702;23.296;2023-02-21T07:00:01;95366.16;;;6.78;81.68
15477;BME280;7840;42.702;23.296;2023-02-21T07:02:37;95366.78;;;6.98;80.07
15477;BME280;7840;42.702;23.296;2023-02-21T07:05:09;95365.94;;;7.04;80.00
15477;BME280;7840;42.702;23.296;2023-02-21T07:07:37;95361.44;;;7.30;79.86
15477;BME280;7840;42.702;23.296;2023-02-21T07:10:05;95356.53;;;7.52;78.03
15477;BME280;7840;42.702;23.296;2023-02-21T07:12:33;95359.53;;;7.55;76.88
15477;BME280;7840;42.702;23.296;2023-02-21T07:15:01;95364.06;;;7.66;76.69
15477;BME280;7840;42.702;23.296;2023-02-21T07:17:39;95367.25;;;8.05;75.03
15477;BME280;7840;42.702;23.296;2023-02-21T07:20:10;95362.84;;;8.29;73.54
15477;BME280;7840;42.702;23.296;2023-02-21T07:22:46;95369.47;;;8.50;72.48
15477;BME280;7840;42.702;23.296;2023-02-21T07:25:17;95356.78;;;8.59;72.01
15477;BME280;7840;42.702;23.296;2023-02-21T07:27:46;95354.59;;;8.67;70.97
15477;BME280;7840;42.702;23.296;2023-02-21T07:30:15;95348.41;;;8.73;70.42
15477;BME280;7840;42.702;23.296;2023-02-21T07:32:44;95344.53;;;8.88;69.98
15477;BME280;7840;42.702;23.296;2023-02-21T07:35:12;95343.59;;;8.94;69.74
15477;BME280;7840;42.702;23.296;2023-02-21T07:37:39;95332.69;;;9.14;68.59
15477;BME280;7840;42.702;23.296;2023-02-21T07:40:08;95331.19;;;9.29;67.89
15477;BME280;7840;42.702;23.296;2023-02-21T07:42:47;95330.59;;;9.39;66.97
15477;BME280;7840;42.702;23.296;2023-02-21T07:45:27;95327.13;;;9.50;66.89
15477;BME280;7840;42.702;23.296;2023-02-21T07:47:57;95319.19;;;9.62;66.27
15477;BME280;7840;42.702;23.296;2023-02-21T07:50:36;95322.56;;;9.74;66.17
15477;BME280;7840;42.702;23.296;2023-02-21T07:53:06;95313.25;;;9.83;65.53
15477;BME280;7840;42.702;23.296;2023-02-21T07:55:42;95320.69;;;9.86;65.76
15477;BME280;7840;42.702;23.296;2023-02-21T07:58:37;95316.66;;;9.96;65.62
15477;BME280;7840;42.702;23.296;2023-02-21T08:01:45;95315.47;;;10.03;64.47
15477;BME280;7840;42.702;23.296;2023-02-21T08:04:14;95314.31;;;9.99;65.08
15477;BME280;7840;42.702;23.296;2023-02-21T08:06:46;95305.56;;;9.82;65.43
15477;BME280;7840;42.702;23.296;2023-02-21T08:09:14;95306.03;;;9.67;66.07
15477;BME280;7840;42.702;23.296;2023-02-21T08:11:42;95309.34;;;9.74;65.81
15477;BME280;7840;42.702;23.296;2023-02-21T08:14:10;95303.50;;;9.72;65.77
15477;BME280;7840;42.702;23.296;2023-02-21T08:16:37;95308.34;;;9.75;65.99
15477;BME280;7840;42.702;23.296;2023-02-21T08:19:05;95310.63;;;9.72;65.55
15477;BME280;7840;42.702;23.296;2023-02-21T08:21:36;95300.16;;;9.77;65.54
15477;BME280;7840;42.702;23.296;2023-02-21T08:24:05;95309.13;;;9.76;65.59
15477;BME280;7840;42.702;23.296;2023-02-21T08:26:33;95298.22;;;9.72;65.42
15477;BME280;7840;42.702;23.296;2023-02-21T08:29:01;95303.84;;;9.76;65.80
15477;BME280;7840;42.702;23.296;2023-02-21T08:54:52;95286.69;;;10.69;61.15
15477;BME280;7840;42.702;23.296;2023-02-21T09:00:32;95283.16;;;10.80;59.62
15477;BME280;7840;42.702;23.296;2023-02-21T09:03:00;95291.00;;;10.75;59.76
15477;BME280;7840;42.702;23.296;2023-02-21T09:05:29;95285.94;;;10.90;59.68
15477;BME280;7840;42.702;23.296;2023-02-21T09:07:59;95276.53;;;11.00;59.14
15477;BME280;7840;42.702;23.296;2023-02-21T09:10:30;95288.88;;;11.11;58.96
15477;BME280;7840;42.702;23.296;2023-02-21T09:12:59;95285.25;;;11.17;58.58
15477;BME280;7840;42.702;23.296;2023-02-21T09:15:27;95284.03;;;11.24;58.95
15477;BME280;7840;42.702;23.296;2023-02-21T09:17:55;95279.41;;;11.59;57.60
15477;BME280;7840;42.702;23.296;2023-02-21T09:20:25;95280.69;;;12.00;55.78
15477;BME280;7840;42.702;23.296;2023-02-21T09:22:54;95268.03;;;12.34;53.93
15477;BME280;7840;42.702;23.296;2023-02-21T09:25:23;95259.00;;;12.67;52.93
15477;BME280;7840;42.702;23.296;2023-02-21T09:27:55;95252.06;;;13.03;51.82
15477;BME280;7840;42.702;23.296;2023-02-21T09:30:28;95254.66;;;13.35;51.07
15477;BME280;7840;42.702;23.296;2023-02-21T09:33:03;95248.72;;;13.81;48.97
15477;BME280;7840;42.702;23.296;2023-02-21T09:35:31;95250.38;;;14.17;48.33
15477;BME280;7840;42.702;23.296;2023-02-21T09:38:01;95241.91;;;14.66;47.23
15477;BME280;7840;42.702;23.296;2023-02-21T09:40:35;95242.94;;;15.06;45.44
15477;BME280;7840;42.702;23.296;2023-02-21T09:43:12;95233.00;;;15.22;45.40
15477;BME280;7840;42.702;23.296;2023-02-21T09:45:45;95234.22;;;15.60;44.00
15477;BME280;7840;42.702;23.296;2023-02-21T09:48:29;95228.31;;;15.78;43.71
15477;BME280;7840;42.702;23.296;2023-02-21T09:51:08;95223.28;;;16.11;42.79
15477;BME280;7840;42.702;23.296;2023-02-21T09:53:40;95218.00;;;16.40;41.50
15477;BME280;7840;42.702;23.296;2023-02-21T09:56:13;95225.72;;;16.81;40.97
15477;BME280;7840;42.702;23.296;2023-02-21T09:58:46;95214.47;;;17.08;40.30
15477;BME280;7840;42.702;23.296;2023-02-21T10:01:24;95209.66;;;17.34;39.45
15477;BME280;7840;42.702;23.296;2023-02-21T10:04:03;95197.25;;;17.62;38.78
15477;BME280;7840;42.702;23.296;2023-02-21T10:06:49;95197.47;;;17.89;37.90
15477;BME280;7840;42.702;23.296;2023-02-21T10:09:45;95194.13;;;18.35;36.22
15477;BME280;7840;42.702;23.296;2023-02-21T10:12:35;95184.47;;;18.53;35.44
15477;BME280;7840;42.702;23.296;2023-02-21T10:15:33;95178.28;;;18.52;34.19
15477;BME280;7840;42.702;23.296;2023-02-21T10:18:07;95181.75;;;18.72;35.06
15477;BME280;7840;42.702;23.296;2023-02-21T10:20:46;95174.53;;;18.53;32.20
15477;BME280;7840;42.702;23.296;2023-02-21T10:23:36;95170.38;;;18.10;31.19
15477;BME280;7840;42.702;23.296;2023-02-21T10:26:20;95172.63;;;18.21;31.36
15477;BME280;7840;42.702;23.296;2023-02-21T10:28:50;95169.56;;;18.28;31.01
15477;BME280;7840;42.702;23.296;2023-02-21T10:31:59;95166.13;;;18.41;30.67
15477;BME280;7840;42.702;23.296;2023-02-21T10:34:32;95164.09;;;18.66;30.50
15477;BME280;7840;42.702;23.296;2023-02-21T10:39:55;95156.56;;;18.35;30.72
15477;BME280;7840;42.702;23.296;2023-02-21T10:42:40;95141.50;;;18.39;31.04
15477;BME280;7840;42.702;23.296;2023-02-21T10:45:11;95146.91;;;18.01;31.27
15477;BME280;7840;42.702;23.296;2023-02-21T10:47:50;95143.94;;;17.65;31.53
15477;BME280;7840;42.702;23.296;2023-02-21T10:51:05;95141.53;;;17.64;31.66
15477;BME280;7840;42.702;23.296;2023-02-21T10:53:35;95132.97;;;17.62;31.45
15477;BME280;7840;42.702;23.296;2023-02-21T10:58:56;95123.63;;;17.40;31.78
15477;BME280;7840;42.702;23.296;2023-02-21T11:01:37;95112.56;;;17.66;32.06
15477;BME280;7840;42.702;23.296;2023-02-21T11:04:26;95116.94;;;17.99;30.82
15477;BME280;7840;42.702;23.296;2023-02-21T11:06:59;95108.53;;;17.87;31.35
15477;BME280;7840;42.702;23.296;2023-02-21T11:09:45;95099.56;;;17.78;31.45
15477;BME280;7840;42.702;23.296;2023-02-21T11:12:20;95099.16;;;17.71;31.43
15477;BME280;7840;42.702;23.296;2023-02-21T11:15:17;95102.25;;;17.78;31.45
15477;BME280;7840;42.702;23.296;2023-02-21T11:18:15;95099.66;;;18.38;31.03
15477;BME280;7840;42.702;23.296;2023-02-21T11:21:08;95082.28;;;18.36;30.20
15477;BME280;7840;42.702;23.296;2023-02-21T11:23:44;95064.78;;;18.38;30.79
15477;BME280;7840;42.702;23.296;2023-02-21T11:26:14;95070.91;;;18.25;30.74
15477;BME280;7840;42.702;23.296;2023-02-21T11:28:46;95076.19;;;18.30;30.73
15477;BME280;7840;42.702;23.296;2023-02-21T11:31:34;95066.91;;;18.41;30.53
15477;BME280;7840;42.702;23.296;2023-02-21T11:34:17;95070.66;;;18.26;30.95
15477;BME280;7840;42.702;23.296;2023-02-21T11:36:50;95069.66;;;18.69;30.42
15477;BME280;7840;42.702;23.296;2023-02-21T11:39:34;95072.69;;;18.62;30.10
15477;BME280;7840;42.702;23.296;2023-02-21T11:42:26;95066.22;;;18.49;30.70
15477;BME280;7840;42.702;23.296;2023-02-21T11:45:19;95054.69;;;18.49;30.74
15477;BME280;7840;42.702;23.296;2023-02-21T11:47:55;95039.31;;;18.54;30.96
15477;BME280;7840;42.702;23.296;2023-02-21T11:50:41;95045.34;;;18.33;31.33
15477;BME280;7840;42.702;23.296;2023-02-21T11:53:19;95052.47;;;17.91;31.48
15477;BME280;7840;42.702;23.296;2023-02-21T11:56:00;95032.00;;;18.27;31.52
15477;BME280;7840;42.702;23.296;2023-02-21T11:58:37;95020.72;;;18.72;30.96
15477;BME280;7840;42.702;23.296;2023-02-21T12:01:13;95018.44;;;18.93;30.66
15477;BME280;7840;42.702;23.296;2023-02-21T12:04:03;95022.31;;;19.00;30.48
15477;BME280;7840;42.702;23.296;2023-02-21T12:06:38;95002.03;;;19.08;30.63
15477;BME280;7840;42.702;23.296;2023-02-21T12:09:14;95010.53;;;19.24;30.44
15477;BME280;7840;42.702;23.296;2023-02-21T12:12:08;95002.09;;;19.17;30.35
15477;BME280;7840;42.702;23.296;2023-02-21T12:14:54;95002.97;;;19.26;30.30
15477;BME280;7840;42.702;23.296;2023-02-21T12:20:56;94984.66;;;19.28;30.38
15477;BME280;7840;42.702;23.296;2023-02-21T12:23:34;94982.97;;;19.54;30.05
15477;BME280;7840;42.702;23.296;2023-02-21T12:29:11;94979.34;;;19.00;31.19
15477;BME280;7840;42.702;23.296;2023-02-21T12:35:05;94953.78;;;19.39;30.28
15477;BME280;7840;42.702;23.296;2023-02-21T12:37:49;94952.81;;;19.80;30.21
15477;BME280;7840;42.702;23.296;2023-02-21T12:40:28;94951.63;;;20.26;29.58
15477;BME280;7840;42.702;23.296;2023-02-21T12:43:16;94973.91;;;19.28;30.84
15477;BME280;7840;42.702;23.296;2023-02-21T12:46:18;94962.69;;;19.26;30.95
15477;BME280;7840;42.702;23.296;2023-02-21T12:52:20;94951.19;;;19.34;30.79
15477;BME280;7840;42.702;23.296;2023-02-21T12:54:57;94944.50;;;19.23;30.59
15477;BME280;7840;42.702;23.296;2023-02-21T12:57:32;94949.03;;;19.36;30.44
15477;BME280;7840;42.702;23.296;2023-02-21T13:00:11;94954.69;;;19.34;31.00
15477;BME280;7840;42.702;23.296;2023-02-21T13:02:49;94949.88;;;19.23;30.99
15477;BME280;7840;42.702;23.296;2023-02-21T13:05:22;94944.63;;;19.62;30.53
15477;BME280;7840;42.702;23.296;2023-02-21T13:07:56;94945.94;;;19.65;30.32
15477;BME280;7840;42.702;23.296;2023-02-21T13:10:30;94942.66;;;19.54;30.63
15477;BME280;7840;42.702;23.296;2023-02-21T13:13:03;94951.13;;;19.61;30.29
15477;BME280;7840;42.702;23.296;2023-02-21T13:15:37;94934.97;;;19.39;30.41
15477;BME280;7840;42.702;23.296;2023-02-21T13:18:18;94934.13;;;19.75;30.36
15477;BME280;7840;42.702;23.296;2023-02-21T13:20:51;94928.38;;;20.30;29.28
15477;BME280;7840;42.702;23.296;2023-02-21T13:23:40;94926.94;;;20.63;28.86
15477;BME280;7840;42.702;23.296;2023-02-21T13:26:38;94922.00;;;20.48;29.05
15477;BME280;7840;42.702;23.296;2023-02-21T13:32:07;94929.16;;;20.61;28.63
15477;BME280;7840;42.702;23.296;2023-02-21T13:34:37;94920.00;;;20.80;28.64
15477;BME280;7840;42.702;23.296;2023-02-21T13:37:07;94902.44;;;21.34;27.68
15477;BME280;7840;42.702;23.296;2023-02-21T13:39:45;94912.25;;;21.47;27.45
15477;BME280;7840;42.702;23.296;2023-02-21T13:42:17;94903.41;;;21.38;27.58
15477;BME280;7840;42.702;23.296;2023-02-21T13:44:48;94903.75;;;21.28;27.41
15477;BME280;7840;42.702;23.296;2023-02-21T13:48:09;94899.41;;;21.53;27.45
15477;BME280;7840;42.702;23.296;2023-02-21T13:50:55;94891.34;;;21.10;27.94
15477;BME280;7840;42.702;23.296;2023-02-21T13:54:05;94885.81;;;21.23;27.92
15477;BME280;7840;42.702;23.296;2023-02-21T13:56:40;94892.78;;;21.42;27.59
15477;BME280;7840;42.702;23.296;2023-02-21T13:59:32;94894.69;;;21.33;27.46
15477;BME280;7840;42.702;23.296;2023-02-21T14:02:26;94888.69;;;21.36;27.61
15477;BME280;7840;42.702;23.296;2023-02-21T14:05:05;94885.91;;;21.62;27.41
15477;BME280;7840;42.702;23.296;2023-02-21T14:08:00;94887.97;;;21.73;27.18
15477;BME280;7840;42.702;23.296;2023-02-21T14:10:38;94880.56;;;22.17;27.20
15477;BME280;7840;42.702;23.296;2023-02-21T14:13:18;94887.09;;;21.99;26.78
15477;BME280;7840;42.702;23.296;2023-02-21T14:16:16;94889.69;;;21.78;26.29
15477;BME280;7840;42.702;23.296;2023-02-21T14:18:48;94888.00;;;22.79;25.56
15477;BME280;7840;42.702;23.296;2023-02-21T14:24:43;94890.22;;;22.48;25.26
15477;BME280;7840;42.702;23.296;2023-02-21T14:27:37;94893.78;;;22.39;25.10
15477;BME280;7840;42.702;23.296;2023-02-21T14:30:28;94880.75;;;22.03;25.45
15477;BME280;7840;42.702;23.296;2023-02-21T14:33:20;94879.09;;;22.79;24.91
15477;BME280;7840;42.702;23.296;2023-02-21T14:35:58;94874.94;;;23.77;24.25
15477;BME280;7840;42.702;23.296;2023-02-21T14:38:52;94873.88;;;24.02;23.61
15477;BME280;7840;42.702;23.296;2023-02-21T14:41:35;94878.44;;;22.31;24.65
15477;BME280;7840;42.702;23.296;2023-02-21T14:44:22;94878.78;;;22.51;24.99
15477;BME280;7840;42.702;23.296;2023-02-21T14:47:20;94868.09;;;22.33;25.27
15477;BME280;7840;42.702;23.296;2023-02-21T14:50:17;94871.19;;;22.74;24.43
15477;BME280;7840;42.702;23.296;2023-02-21T14:53:51;94870.19;;;23.74;23.77
15477;BME280;7840;42.702;23.296;2023-02-21T14:56:48;94859.59;;;23.81;23.69
15477;BME280;7840;42.702;23.296;2023-02-21T15:02:22;94864.44;;;23.42;23.87
15477;BME280;7840;42.702;23.296;2023-02-21T15:04:57;94856.34;;;23.76;23.68
15477;BME280;7840;42.702;23.296;2023-02-21T15:07:32;94855.75;;;23.37;23.80
15477;BME280;7840;42.702;23.296;2023-02-21T15:10:14;94864.44;;;22.29;24.70
15477;BME280;7840;42.702;23.296;2023-02-21T15:12:46;94862.75;;;21.78;25.44
15477;BME280;7840;42.702;23.296;2023-02-21T15:15:17;94853.59;;;21.53;25.96
15477;BME280;7840;42.702;23.296;2023-02-21T15:17:55;94871.22;;;21.24;26.17
15477;BME280;7840;42.702;23.296;2023-02-21T15:20:24;94859.97;;;20.96;26.56
15477;BME280;7840;42.702;23.296;2023-02-21T15:22:56;94873.78;;;20.95;26.63
15477;BME280;7840;42.702;23.296;2023-02-21T15:25:24;94867.75;;;20.98;26.82